Time;durP1;ratioP1;P1;durP2;ratioP2;P2;SDS_P1;SDS_P2;PMS_P1;PMS_P2;Temp;Humidity;BMP_temperature;BMP_pressure;BME280_temperature;BME280_humidity;BME280_pressure;Samples;Min_cycle;Max_cycle;Signal;HPM_P1;HPM_P2
2024/03/24 00:01:07;;;;;;;4.75;2.22;;;;;;;3.82;82.20;99792.03;2524217;28;20025;-81
2024/03/24 00:02:20;;;;;;;6.32;2.08;;;;;;;3.82;82.41;99791.16;2534809;28;20498;-81
2024/03/24 00:03:35;;;;;;;4.95;2.47;;;;;;;3.82;82.17;99789.47;2534503;28;20079;-81
2024/03/24 00:04:48;;;;;;;7.10;2.25;;;;;;;3.84;82.57;99785.16;2525471;28;20020;-81
2024/03/24 00:06:02;;;;;;;5.43;2.83;;;;;;;3.86;82.75;99780.84;2525205;28;20068;-80
2024/03/24 00:07:16;;;;;;;2.92;2.63;;;;;;;3.87;82.81;99774.84;2525521;28;20028;-81
2024/03/24 00:08:30;;;;;;;3.63;2.25;;;;;;;3.87;83.04;99772.28;2534699;28;20021;-81
2024/03/24 00:09:44;;;;;;;4.20;1.95;;;;;;;3.88;83.09;99773.13;2530413;28;20028;-80
2024/03/24 00:10:57;;;;;;;3.35;2.00;;;;;;;3.87;82.96;99774.84;2536343;28;20013;-80
2024/03/24 00:12:11;;;;;;;2.55;2.33;;;;;;;3.87;83.11;99774.84;2527934;28;20484;-81
2024/03/24 00:13:25;;;;;;;9.35;2.80;;;;;;;3.87;83.26;99772.28;2531305;28;20083;-79
2024/03/24 00:14:38;;;;;;;6.97;2.55;;;;;;;3.88;83.38;99770.56;2528670;28;20029;-81
2024/03/24 00:15:52;;;;;;;3.08;2.67;;;;;;;3.88;83.44;99768.81;2530145;28;20108;-81
2024/03/24 00:17:05;;;;;;;4.75;2.45;;;;;;;3.89;83.58;99770.53;2526869;28;20088;-79
2024/03/24 00:18:18;;;;;;;7.68;2.83;;;;;;;3.90;83.54;99766.28;2533263;28;20124;-79
2024/03/24 00:19:31;;;;;;;3.78;2.50;;;;;;;3.91;83.58;99773.16;2530716;28;20025;-79
2024/03/24 00:20:45;;;;;;;3.45;2.55;;;;;;;3.91;83.50;99788.63;2531520;28;20029;-81
2024/03/24 00:21:58;;;;;;;5.15;2.35;;;;;;;3.92;83.71;99780.91;2533490;28;20032;-81
2024/03/24 00:23:11;;;;;;;5.80;2.53;;;;;;;3.92;83.78;99774.84;2531643;28;20036;-83
2024/03/24 00:24:24;;;;;;;3.95;3.05;;;;;;;3.93;83.72;99772.28;2530573;28;20530;-82
2024/03/24 00:25:38;;;;;;;4.40;2.85;;;;;;;3.95;84.28;99782.63;2532376;28;20030;-80
2024/03/24 00:26:51;;;;;;;3.63;2.55;;;;;;;3.96;83.97;99776.59;2530442;28;20472;-82
2024/03/24 00:28:05;;;;;;;5.03;2.85;;;;;;;3.97;83.93;99773.16;2534010;28;20025;-82
2024/03/24 00:29:18;;;;;;;4.72;2.85;;;;;;;3.99;84.12;99765.44;2521553;28;20030;-81
2024/03/24 00:30:32;;;;;;;4.45;3.67;;;;;;;4.00;84.06;99770.63;2531689;28;20060;-80
2024/03/24 00:31:45;;;;;;;6.43;2.55;;;;;;;3.99;84.15;99771.44;2533563;28;20396;-82
2024/03/24 00:32:58;;;;;;;6.15;3.83;;;;;;;4.01;84.19;99771.47;2531561;28;20399;-79
2024/03/24 00:34:12;;;;;;;4.72;2.63;;;;;;;4.02;84.34;99770.59;2531209;28;21108;-78
2024/03/24 00:35:25;;;;;;;4.75;3.33;;;;;;;4.04;84.44;99772.34;2530711;28;20450;-80
2024/03/24 00:36:38;;;;;;;5.40;3.10;;;;;;;4.06;84.35;99767.19;2528224;28;20415;-80
2024/03/24 00:37:51;;;;;;;6.78;4.38;;;;;;;4.08;84.35;99768.03;2530815;28;20038;-79
2024/03/24 00:39:07;;;;;;;3.90;2.90;;;;;;;4.09;84.34;99765.47;2521909;28;20029;-80
2024/03/24 00:40:20;;;;;;;6.63;2.67;;;;;;;4.10;84.46;99769.75;2518513;28;20037;-80
2024/03/24 00:41:34;;;;;;;6.05;3.63;;;;;;;4.10;84.57;99769.75;2518532;28;20057;-81
2024/03/24 00:42:48;;;;;;;3.20;2.90;;;;;;;4.12;84.62;99769.78;2521875;28;20037;-80
2024/03/24 00:44:01;;;;;;;7.63;3.05;;;;;;;4.13;84.58;99771.50;2522435;28;20065;-80
2024/03/24 00:45:14;;;;;;;4.82;2.90;;;;;;;4.15;84.57;99772.38;2523711;28;20037;-78
2024/03/24 00:46:27;;;;;;;4.72;3.10;;;;;;;4.16;84.55;99763.78;2529623;28;20029;-80
2024/03/24 00:47:41;;;;;;;4.47;2.75;;;;;;;4.16;84.70;99763.78;2520820;28;20049;-81
2024/03/24 00:48:54;;;;;;;4.20;3.47;;;;;;;4.17;84.64;99759.47;2520170;28;20544;-81
2024/03/24 00:50:09;;;;;;;3.03;2.72;;;;;;;4.17;84.59;99757.75;2520056;28;20038;-83
2024/03/24 00:51:22;;;;;;;3.67;2.17;;;;;;;4.18;84.52;99751.72;2518109;28;20040;-80
2024/03/24 00:52:35;;;;;;;3.90;2.33;;;;;;;4.19;84.94;99757.75;2524821;28;20513;-82
2024/03/24 00:53:49;;;;;;;9.35;3.05;;;;;;;4.21;84.56;99754.31;2523444;28;20100;-80
2024/03/24 00:55:02;;;;;;;7.40;2.47;;;;;;;4.20;84.71;99752.59;2525343;28;20569;-81
2024/03/24 00:56:15;;;;;;;4.63;3.03;;;;;;;4.21;84.62;99753.44;2517684;28;20740;-83
2024/03/24 00:57:29;;;;;;;4.97;3.10;;;;;;;4.19;84.62;99740.53;2515205;28;20549;-80
2024/03/24 00:58:42;;;;;;;3.13;2.47;;;;;;;4.19;84.79;99740.53;2517580;28;20105;-80
2024/03/24 00:59:55;;;;;;;2.92;2.25;;;;;;;4.21;84.83;99750.84;2524395;28;20046;-80
2024/03/24 01:01:08;;;;;;;3.80;2.28;;;;;;;4.20;84.50;99750.00;2528022;28;20044;-79
2024/03/24 01:02:22;;;;;;;5.90;2.53;;;;;;;4.19;84.58;99748.28;2536496;28;20467;-82
2024/03/24 01:03:35;;;;;;;3.67;3.17;;;;;;;4.18;84.55;99743.97;2530875;28;20029;-80
2024/03/24 01:04:48;;;;;;;3.53;2.38;;;;;;;4.18;84.56;99740.53;2547379;28;20094;-80
2024/03/24 01:06:04;;;;;;;3.65;2.38;;;;;;;4.17;84.54;99746.56;2542137;28;20041;-79
2024/03/24 01:07:17;;;;;;;2.60;1.85;;;;;;;4.18;84.62;99737.94;2528859;28;20030;-79
2024/03/24 01:08:30;;;;;;;5.28;2.70;;;;;;;4.18;84.53;99740.53;2538373;28;20039;-81
2024/03/24 01:09:43;;;;;;;4.72;2.55;;;;;;;4.19;84.67;99737.09;2542725;28;20040;-80
2024/03/24 01:11:03;;;;;;;2.42;2.20;;;;;;;4.21;84.59;99745.69;2526764;28;20025;-79
2024/03/24 01:12:16;;;;;;;2.92;2.65;;;;;;;4.21;84.66;99730.19;2519718;28;20104;-80
2024/03/24 01:13:29;;;;;;;3.65;2.42;;;;;;;4.21;84.55;99735.34;2519506;28;20025;-80
2024/03/24 01:14:43;;;;;;;1.92;1.70;;;;;;;4.22;84.52;99735.38;2520739;28;20042;-81
2024/03/24 01:15:56;;;;;;;3.00;2.22;;;;;;;4.22;84.59;99731.94;2535839;28;20029;-80
2024/03/24 01:17:09;;;;;;;3.95;2.05;;;;;;;4.22;84.71;99737.97;2536113;28;20450;-79
2024/03/24 01:18:23;;;;;;;2.58;2.05;;;;;;;4.22;84.51;99737.09;2520073;28;20029;-80
2024/03/24 01:19:36;;;;;;;3.00;2.05;;;;;;;4.23;84.24;99749.16;2524878;28;20116;-79
2024/03/24 01:20:49;;;;;;;3.03;2.35;;;;;;;4.22;84.41;99731.94;2538865;28;20029;-79
2024/03/24 01:22:03;;;;;;;2.50;2.28;;;;;;;4.22;84.41;99732.78;2532622;28;20120;-81
2024/03/24 01:23:16;;;;;;;3.53;1.88;;;;;;;4.22;84.51;99742.28;2532000;28;20025;-81
2024/03/24 01:24:29;;;;;;;2.17;1.73;;;;;;;4.22;84.55;99737.09;2538668;28;20025;-81
2024/03/24 01:25:44;;;;;;;11.48;2.25;;;;;;;4.23;84.37;99738.81;2536309;28;20093;-82
2024/03/24 01:26:57;;;;;;;3.97;2.40;;;;;;;4.23;84.45;99734.50;2536578;28;20498;-80
2024/03/24 01:28:10;;;;;;;5.57;2.25;;;;;;;4.24;84.28;99731.09;2535977;28;20044;-78
2024/03/24 01:29:24;;;;;;;2.72;1.85;;;;;;;4.22;84.29;99730.22;2550559;28;20032;-79
2024/03/24 01:30:37;;;;;;;2.92;2.35;;;;;;;4.22;84.77;99732.78;2532296;28;20018;-81
2024/03/24 01:31:50;;;;;;;2.08;1.65;;;;;;;4.21;84.39;99731.09;2524493;28;20044;-80
2024/03/24 01:33:03;;;;;;;5.47;3.08;;;;;;;4.21;84.28;99728.50;2532066;28;20033;-78
2024/03/24 01:34:17;;;;;;;3.38;2.13;;;;;;;4.21;84.24;99714.69;2536655;28;20029;-80
2024/03/24 01:35:30;;;;;;;7.07;1.98;;;;;;;4.21;84.35;99727.63;2536255;28;20739;-79
2024/03/24 01:36:44;;;;;;;2.88;2.00;;;;;;;4.19;84.23;99725.03;2531126;28;20029;-79
2024/03/24 01:37:57;;;;;;;3.38;2.40;;;;;;;4.18;84.41;99719.88;2529925;28;20021;-80
2024/03/24 01:39:10;;;;;;;7.50;1.90;;;;;;;4.18;84.25;99725.03;2531112;28;20032;-80
2024/03/24 01:40:23;;;;;;;3.50;2.28;;;;;;;4.18;84.17;99714.69;2545477;28;20018;-79
2024/03/24 01:41:37;;;;;;;4.05;2.03;;;;;;;4.17;84.23;99719.00;2529539;28;20022;-81
2024/03/24 01:42:50;;;;;;;3.08;1.75;;;;;;;4.19;84.13;99716.44;2532142;28;20029;-79
2024/03/24 01:44:03;;;;;;;2.65;1.58;;;;;;;4.19;84.20;99717.28;2544369;28;20030;-80
2024/03/24 01:45:17;;;;;;;2.10;1.13;;;;;;;4.21;83.93;99722.44;2542213;28;20083;-79
2024/03/24 01:46:30;;;;;;;1.77;1.67;;;;;;;4.22;83.80;99716.44;2545549;28;20036;-80
2024/03/24 01:47:43;;;;;;;2.25;2.05;;;;;;;4.22;83.96;99712.13;2538462;28;20033;-78
2024/03/24 01:48:57;;;;;;;1.88;1.77;;;;;;;4.23;83.92;99715.56;2548882;28;20351;-80
2024/03/24 01:50:12;;;;;;;9.70;2.33;;;;;;;4.23;83.98;99724.16;2529460;28;20061;-79
2024/03/24 01:51:25;;;;;;;2.35;1.55;;;;;;;4.23;83.56;99719.00;2529174;28;20514;-81
2024/03/24 01:52:39;;;;;;;2.10;1.52;;;;;;;4.23;83.77;99713.84;2528878;28;20026;-79
2024/03/24 01:53:54;;;;;;;2.75;1.70;;;;;;;4.24;83.85;99712.16;2538978;28;20030;-79
2024/03/24 01:55:07;;;;;;;1.90;1.80;;;;;;;4.21;83.59;99714.69;2539451;28;20052;-80
2024/03/24 01:56:21;;;;;;;2.17;1.73;;;;;;;4.20;83.58;99702.66;2521869;28;20125;-79
2024/03/24 01:57:34;;;;;;;2.13;1.85;;;;;;;4.19;83.63;99706.97;2532280;28;20029;-79
2024/03/24 01:58:47;;;;;;;4.78;2.33;;;;;;;4.16;83.84;99704.38;2540021;28;20032;-80
2024/03/24 02:00:01;;;;;;;2.05;1.80;;;;;;;4.16;83.89;99699.22;2528377;28;20776;-78
2024/03/24 02:01:15;;;;;;;2.40;2.20;;;;;;;4.14;84.17;99690.59;2535189;28;20025;-78
2024/03/24 02:02:28;;;;;;;6.60;1.98;;;;;;;4.12;83.81;99700.06;2539230;28;20149;-79
2024/03/24 02:03:41;;;;;;;2.35;1.65;;;;;;;4.09;83.96;99695.75;2531619;28;20029;-79
2024/03/24 02:04:55;;;;;;;4.30;2.80;;;;;;;4.09;83.94;99698.34;2537833;28;20144;-80
2024/03/24 02:06:08;;;;;;;4.68;2.38;;;;;;;4.09;84.07;99694.91;2541423;28;20033;-79
2024/03/24 02:07:21;;;;;;;2.72;2.47;;;;;;;4.10;84.13;99701.78;2535924;28;20499;-81
2024/03/24 02:08:35;;;;;;;3.00;2.17;;;;;;;4.10;84.13;99696.59;2525804;28;20044;-80
2024/03/24 02:09:48;;;;;;;3.70;2.45;;;;;;;4.11;84.00;99693.19;2520929;28;20017;-79
2024/03/24 02:11:02;;;;;;;3.05;2.33;;;;;;;4.08;84.00;99683.72;2529269;28;20033;-79
2024/03/24 02:12:15;;;;;;;2.47;2.28;;;;;;;4.08;84.13;99693.16;2544764;28;20545;-80
2024/03/24 02:13:28;;;;;;;7.07;2.00;;;;;;;4.09;84.17;99697.47;2538939;28;20018;-80
2024/03/24 02:14:42;;;;;;;2.72;2.50;;;;;;;4.10;84.34;99696.59;2543838;28;20029;-82
2024/03/24 02:15:55;;;;;;;3.30;2.15;;;;;;;4.11;84.44;99688.03;2530049;28;20030;-81
2024/03/24 02:17:08;;;;;;;2.95;2.10;;;;;;;4.12;84.22;99689.72;2535328;28;20717;-80
2024/03/24 02:18:22;;;;;;;3.92;1.80;;;;;;;4.11;84.42;99685.44;2538988;28;20111;-82
2024/03/24 02:19:36;;;;;;;3.42;2.85;;;;;;;4.11;84.45;99677.69;2531898;28;20036;-80
2024/03/24 02:20:50;;;;;;;2.65;2.38;;;;;;;4.10;84.43;99673.38;2539038;28;20029;-80
2024/03/24 02:22:03;;;;;;;1.83;1.73;;;;;;;4.10;84.42;99681.09;2537958;28;20465;-79
2024/03/24 02:23:16;;;;;;;3.38;2.35;;;;;;;4.10;84.25;99681.97;2533603;28;20021;-79
2024/03/24 02:24:30;;;;;;;3.13;2.10;;;;;;;4.10;84.37;99679.38;2539227;28;20136;-80
2024/03/24 02:25:43;;;;;;;5.00;1.90;;;;;;;4.09;84.33;99671.66;2539790;28;20017;-78
2024/03/24 02:26:56;;;;;;;3.97;2.50;;;;;;;4.07;84.34;99681.09;2539860;28;20067;-79
2024/03/24 02:28:09;;;;;;;6.15;3.17;;;;;;;4.07;84.51;99676.81;2538586;28;20040;-79
2024/03/24 02:29:23;;;;;;;4.80;3.47;;;;;;;4.07;84.31;99675.94;2529363;28;20024;-80
2024/03/24 02:30:36;;;;;;;2.83;2.53;;;;;;;4.07;84.37;99670.78;2537105;28;20036;-80
2024/03/24 02:31:49;;;;;;;4.07;3.15;;;;;;;4.08;84.24;99667.34;2539041;28;20026;-79
2024/03/24 02:33:03;;;;;;;4.13;2.65;;;;;;;4.09;84.34;99671.66;2537905;28;20056;-80
2024/03/24 02:34:16;;;;;;;2.67;2.20;;;;;;;4.09;84.14;99676.81;2539176;28;20462;-79
2024/03/24 02:35:30;;;;;;;3.13;2.33;;;;;;;4.10;84.00;99670.78;2537626;28;20037;-78
2024/03/24 02:36:43;;;;;;;2.47;2.28;;;;;;;4.10;84.00;99663.03;2531096;28;20051;-81
2024/03/24 02:37:56;;;;;;;2.20;2.00;;;;;;;4.09;83.92;99656.16;2531552;28;20021;-81
2024/03/24 02:39:10;;;;;;;3.58;2.88;;;;;;;4.10;83.96;99671.63;2537069;28;20030;-80
2024/03/24 02:40:24;;;;;;;4.57;2.60;;;;;;;4.11;83.95;99670.78;2533994;28;20021;-80
2024/03/24 02:41:37;;;;;;;4.47;2.83;;;;;;;4.11;nan;99672.53;2528954;28;20045;-80
2024/03/24 02:42:50;;;;;;;2.40;2.20;;;;;;;4.11;84.07;99668.22;2525465;28;20033;-79
2024/03/24 02:44:03;;;;;;;3.53;3.22;;;;;;;4.11;84.20;99673.38;2537768;28;20042;-81
2024/03/24 02:45:16;;;;;;;3.03;2.70;;;;;;;4.12;84.12;99669.06;2537361;28;20028;-80
2024/03/24 02:46:30;;;;;;;2.50;2.30;;;;;;;4.13;84.13;99665.63;2538229;28;20514;-81
2024/03/24 02:47:43;;;;;;;2.58;2.38;;;;;;;4.14;84.07;99657.88;2537034;28;20120;-79
2024/03/24 02:48:56;;;;;;;2.13;2.03;;;;;;;4.14;84.05;99667.34;2537544;28;20033;-80
2024/03/24 02:50:09;;;;;;;2.67;2.13;;;;;;;4.16;84.14;99663.06;2538087;28;20032;-81
2024/03/24 02:51:23;;;;;;;2.90;2.20;;;;;;;4.17;84.17;99672.53;2537129;28;20071;-79
2024/03/24 02:52:36;;;;;;;3.75;2.65;;;;;;;4.18;84.13;99676.81;2537906;28;20029;-81
2024/03/24 02:53:49;;;;;;;2.70;2.15;;;;;;;4.19;84.17;99669.97;2527220;28;20056;-78
2024/03/24 02:55:03;;;;;;;3.47;1.95;;;;;;;4.19;84.07;99668.22;2530976;28;20033;-81
2024/03/24 02:56:16;;;;;;;2.58;2.35;;;;;;;4.20;83.60;99671.66;2540881;28;20010;-79
2024/03/24 02:57:29;;;;;;;3.15;2.65;;;;;;;4.18;83.78;99669.06;2538255;28;20025;-79
2024/03/24 02:58:42;;;;;;;4.78;2.53;;;;;;;4.18;83.96;99668.22;2537445;28;20468;-81
2024/03/24 02:59:57;;;;;;;3.92;2.40;;;;;;;4.20;83.95;99667.34;2528910;28;20075;-79
2024/03/24 03:01:11;;;;;;;5.38;3.15;;;;;;;4.20;83.96;99666.50;2525461;28;20118;-81
2024/03/24 03:02:24;;;;;;;2.55;2.05;;;;;;;4.19;84.09;99660.47;2522317;28;20040;-78
2024/03/24 03:03:37;;;;;;;3.08;2.45;;;;;;;4.19;nan;99665.66;2517237;28;20031;-80
2024/03/24 03:04:51;;;;;;;3.85;2.67;;;;;;;4.17;84.05;99653.59;2515340;28;20029;-81
2024/03/24 03:06:04;;;;;;;9.45;2.60;;;;;;;4.15;84.13;99654.44;2530878;28;20491;-79
2024/03/24 03:07:18;;;;;;;2.33;2.10;;;;;;;4.13;84.04;99655.28;2537705;28;20037;-79
2024/03/24 03:08:31;;;;;;;2.55;2.35;;;;;;;4.12;84.06;99648.41;2537453;28;20021;-80
2024/03/24 03:09:44;;;;;;;2.42;1.83;;;;;;;4.12;83.98;99648.41;2530589;28;20115;-79
2024/03/24 03:10:58;;;;;;;3.85;2.58;;;;;;;4.11;84.19;99651.88;2531219;28;20025;-80
2024/03/24 03:12:11;;;;;;;2.20;2.00;;;;;;;4.09;84.15;99649.28;2527425;28;20618;-80
2024/03/24 03:13:24;;;;;;;2.95;2.00;;;;;;;4.10;84.20;99644.97;2524888;28;20497;-80
2024/03/24 03:14:37;;;;;;;6.00;2.72;;;;;;;4.07;84.04;99640.66;2528166;28;20041;-81
2024/03/24 03:15:51;;;;;;;3.00;2.70;;;;;;;4.08;84.21;99646.66;2533766;28;20064;-79
2024/03/24 03:17:04;;;;;;;2.92;2.30;;;;;;;4.07;84.28;99652.72;2539459;28;20026;-79
2024/03/24 03:18:17;;;;;;;6.00;2.42;;;;;;;4.08;84.35;99654.41;2543468;28;20049;-80
2024/03/24 03:19:30;;;;;;;4.13;2.00;;;;;;;4.08;84.32;99652.72;2541050;28;20033;-79
2024/03/24 03:20:44;;;;;;;15.10;2.72;;;;;;;4.09;84.46;99656.16;2521439;28;20018;-79
2024/03/24 03:21:57;;;;;;;4.45;2.20;;;;;;;4.10;84.49;99652.72;2524871;28;20065;-79
2024/03/24 03:23:10;;;;;;;3.13;2.33;;;;;;;4.08;84.59;99649.25;2538143;28;20022;-80
2024/03/24 03:24:24;;;;;;;3.10;2.17;;;;;;;4.09;84.35;99649.28;2537815;28;20056;-80
2024/03/24 03:25:37;;;;;;;5.32;2.92;;;;;;;4.09;84.58;99649.28;2522326;28;20029;-80
2024/03/24 03:26:50;;;;;;;3.55;2.40;;;;;;;4.11;84.55;99651.88;2525228;28;20029;-80
2024/03/24 03:28:04;;;;;;;5.50;3.80;;;;;;;4.12;84.76;99651.00;2543711;28;20034;-80
2024/03/24 03:29:17;;;;;;;4.65;3.13;;;;;;;4.12;84.80;99653.56;2543593;28;20025;-80
2024/03/24 03:30:30;;;;;;;4.03;2.90;;;;;;;4.12;84.64;99651.00;2539413;28;20017;-81
2024/03/24 03:31:43;;;;;;;4.07;2.25;;;;;;;4.13;84.74;99651.00;2542021;28;20533;-81
2024/03/24 03:32:57;;;;;;;3.35;2.70;;;;;;;4.12;84.53;99651.00;2534020;28;20021;-80
2024/03/24 03:34:10;;;;;;;5.55;2.25;;;;;;;4.12;84.64;99653.56;2539875;28;20075;-81
2024/03/24 03:35:23;;;;;;;4.18;3.00;;;;;;;4.10;84.50;99647.53;2538349;28;20033;-79
2024/03/24 03:36:36;;;;;;;2.78;2.58;;;;;;;4.11;84.47;99654.44;2542448;28;20510;-79
2024/03/24 03:37:50;;;;;;;3.15;2.85;;;;;;;4.10;84.69;99645.81;2536786;28;20040;-82
2024/03/24 03:39:04;;;;;;;4.22;3.10;;;;;;;4.11;84.62;99641.53;2536862;28;20021;-79
2024/03/24 03:40:18;;;;;;;2.47;2.28;;;;;;;4.09;84.29;99641.53;2538264;28;20028;-80
2024/03/24 03:41:31;;;;;;;2.10;1.90;;;;;;;4.06;84.30;99640.66;2537872;28;20478;-80
2024/03/24 03:42:45;;;;;;;4.15;2.08;;;;;;;4.02;84.22;99636.34;2537342;28;20068;-80
2024/03/24 03:43:58;;;;;;;3.38;1.88;;;;;;;3.96;83.99;99636.34;2537369;28;20029;-80
2024/03/24 03:45:15;;;;;;;2.85;2.35;;;;;;;3.90;84.14;99638.06;2538552;28;20132;-80
2024/03/24 03:46:28;;;;;;;2.13;1.67;;;;;;;3.84;84.05;99643.19;2540138;28;20017;-81
2024/03/24 03:47:41;;;;;;;2.58;2.10;;;;;;;3.79;83.90;99637.16;2528212;28;20037;-82
2024/03/24 03:48:54;;;;;;;2.28;1.67;;;;;;;3.74;83.95;99641.44;2536156;28;20024;-80
2024/03/24 03:50:13;;;;;;;1.55;1.45;;;;;;;3.70;83.90;99630.25;2538599;28;20060;-81
2024/03/24 03:51:39;;;;;;;2.63;2.40;;;;;;;3.68;83.94;99631.13;2542602;28;20021;-82
2024/03/24 03:52:55;;;;;;;2.20;2.00;;;;;;;3.65;84.00;99634.53;2533573;28;20025;-81
2024/03/24 03:54:11;;;;;;;2.53;1.70;;;;;;;3.65;84.01;99636.28;2533262;28;20013;-82
2024/03/24 03:55:24;;;;;;;2.78;1.45;;;;;;;3.65;84.40;99628.53;2543244;28;20044;-82
2024/03/24 03:56:38;;;;;;;2.17;1.98;;;;;;;3.65;84.33;99631.97;2542100;28;20398;-81
2024/03/24 03:57:51;;;;;;;4.32;2.20;;;;;;;3.66;84.34;99628.50;2539006;28;20024;-81
2024/03/24 03:59:07;;;;;;;3.22;1.85;;;;;;;3.67;84.43;99619.09;2538880;28;20026;-80
2024/03/24 04:00:21;;;;;;;4.18;3.78;;;;;;;3.67;84.44;99626.81;2538980;28;20036;-80
2024/03/24 04:01:34;;;;;;;1.88;1.48;;;;;;;3.69;84.48;99633.72;2538320;28;20028;-80
2024/03/24 04:02:48;;;;;;;4.25;1.88;;;;;;;3.69;84.53;99627.66;2532233;28;20056;-81
2024/03/24 04:04:01;;;;;;;2.58;2.00;;;;;;;3.69;84.51;99632.81;2531148;28;20068;-80
2024/03/24 04:05:15;;;;;;;3.92;2.17;;;;;;;3.69;84.67;99638.88;2531736;28;20013;-79
2024/03/24 04:06:28;;;;;;;2.22;2.00;;;;;;;3.69;84.58;99640.56;2528741;28;20032;-81
2024/03/24 04:07:42;;;;;;;2.22;1.92;;;;;;;3.68;84.84;99637.13;2534501;28;20495;-80
2024/03/24 04:08:56;;;;;;;3.08;1.92;;;;;;;3.67;84.44;99634.56;2527301;28;20089;-82
2024/03/24 04:10:09;;;;;;;2.40;1.88;;;;;;;3.65;84.37;99631.97;2524699;28;20414;-80
2024/03/24 04:11:22;;;;;;;4.30;1.98;;;;;;;3.64;84.90;99632.84;2531686;28;20097;-80
2024/03/24 04:12:36;;;;;;;2.28;1.60;;;;;;;3.63;84.47;99636.25;2532221;28;20577;-79
2024/03/24 04:13:50;;;;;;;2.70;1.52;;;;;;;3.63;84.46;99632.81;2522194;28;20014;-81
2024/03/24 04:15:04;;;;;;;3.70;2.08;;;;;;;3.64;84.71;99630.25;2525134;28;20029;-80
2024/03/24 04:16:17;;;;;;;2.33;1.77;;;;;;;3.65;84.53;99637.13;2528302;28;20053;-82
2024/03/24 04:17:30;;;;;;;1.98;1.80;;;;;;;3.67;84.73;99635.41;2535735;28;20028;-80
2024/03/24 04:18:46;;;;;;;2.13;1.85;;;;;;;3.69;84.52;99632.81;2535433;28;20045;-81
2024/03/24 04:20:05;;;;;;;2.05;1.80;;;;;;;3.70;84.54;99634.56;2532364;28;20060;-80
2024/03/24 04:21:18;;;;;;;4.18;1.70;;;;;;;3.70;84.50;99638.00;2532838;28;20152;-81
2024/03/24 04:22:33;;;;;;;2.72;2.05;;;;;;;3.74;84.47;99638.84;2537543;28;20041;-82
2024/03/24 04:23:46;;;;;;;3.25;1.88;;;;;;;3.75;84.31;99632.88;2537939;28;20021;-80
2024/03/24 04:24:59;;;;;;;3.60;1.65;;;;;;;3.77;84.59;99630.25;2536536;28;20451;-80
2024/03/24 04:26:12;;;;;;;2.97;2.10;;;;;;;3.79;84.50;99637.16;2537469;28;20506;-80
2024/03/24 04:27:25;;;;;;;2.40;1.77;;;;;;;3.80;84.42;99633.75;2520402;28;20537;-80
2024/03/24 04:28:39;;;;;;;3.45;2.63;;;;;;;3.83;84.48;99638.03;2530424;28;20306;-80
2024/03/24 04:29:52;;;;;;;2.25;1.77;;;;;;;3.84;84.38;99637.16;2536707;28;20089;-80
2024/03/24 04:31:06;;;;;;;2.80;1.50;;;;;;;3.87;84.16;99647.50;2530657;28;20022;-80
2024/03/24 04:32:19;;;;;;;2.55;2.08;;;;;;;3.88;83.78;99637.19;2520680;28;20060;-78
2024/03/24 04:33:32;;;;;;;2.90;2.35;;;;;;;3.89;83.76;99640.63;2531077;28;20433;-80
2024/03/24 04:34:45;;;;;;;2.05;1.73;;;;;;;3.84;83.66;99640.59;2531286;28;20458;-81
2024/03/24 04:35:59;;;;;;;3.17;1.80;;;;;;;3.84;83.54;99638.03;2537772;28;20033;-81
2024/03/24 04:37:12;;;;;;;2.50;1.77;;;;;;;3.84;83.51;99642.34;2537965;28;20427;-79
2024/03/24 04:38:25;;;;;;;3.53;1.70;;;;;;;3.84;83.65;99643.19;2537631;28;20760;-81
2024/03/24 04:39:38;;;;;;;3.67;2.08;;;;;;;3.87;83.65;99655.25;2532084;28;20033;-79
2024/03/24 04:40:51;;;;;;;4.15;2.05;;;;;;;3.87;83.67;99645.81;2520708;28;20034;-80
2024/03/24 04:42:05;;;;;;;2.90;2.13;;;;;;;3.90;83.76;99650.13;2528078;28;20033;-80
2024/03/24 04:43:19;;;;;;;3.45;2.55;;;;;;;3.89;83.63;99646.66;2530063;28;20063;-80
2024/03/24 04:44:32;;;;;;;4.13;1.88;;;;;;;3.92;83.67;99651.84;2530965;28;20021;-79
2024/03/24 04:45:45;;;;;;;2.53;2.17;;;;;;;3.95;83.64;99650.97;2530683;28;20018;-80
2024/03/24 04:46:59;;;;;;;2.67;2.30;;;;;;;3.97;83.40;99653.56;2537665;28;20052;-79
2024/03/24 04:48:12;;;;;;;2.90;1.70;;;;;;;3.98;83.79;99644.97;2526852;28;20022;-80
2024/03/24 04:49:25;;;;;;;2.72;1.73;;;;;;;3.99;83.63;99646.69;2519041;28;20018;-80
2024/03/24 04:50:38;;;;;;;3.13;2.13;;;;;;;3.98;83.63;99645.81;2515543;28;20025;-80
2024/03/24 04:51:52;;;;;;;4.70;2.55;;;;;;;3.94;83.32;99647.50;2523031;28;20052;-80
2024/03/24 04:53:06;;;;;;;5.22;2.58;;;;;;;3.90;83.13;99642.38;2533429;28;20044;-80
2024/03/24 04:54:20;;;;;;;2.20;2.00;;;;;;;3.84;83.09;99645.78;2517073;28;20026;-80
2024/03/24 04:55:33;;;;;;;1.90;1.80;;;;;;;3.78;82.77;99640.59;2522119;28;20444;-80
2024/03/24 04:56:47;;;;;;;4.95;2.08;;;;;;;3.74;82.69;99654.34;2524128;28;20045;-80
2024/03/24 04:58:00;;;;;;;3.45;2.60;;;;;;;3.71;82.78;99649.19;2523341;28;20466;-78
2024/03/24 04:59:13;;;;;;;3.28;2.30;;;;;;;3.71;82.72;99646.59;2512795;28;20069;-80
2024/03/24 05:00:26;;;;;;;3.55;3.25;;;;;;;3.70;82.53;99656.06;2512449;28;20058;-79
2024/03/24 05:01:40;;;;;;;4.47;2.45;;;;;;;3.70;82.74;99653.47;2521599;28;20105;-80
2024/03/24 05:02:53;;;;;;;4.70;2.72;;;;;;;3.72;82.35;99658.66;2513723;28;20026;-81
2024/03/24 05:04:06;;;;;;;3.47;2.50;;;;;;;3.72;82.62;99659.53;2525003;28;20532;-80
2024/03/24 05:05:19;;;;;;;3.10;2.75;;;;;;;3.71;82.49;99654.34;2527223;28;20418;-79
2024/03/24 05:06:33;;;;;;;3.88;2.33;;;;;;;3.70;82.47;99655.22;2533268;28;20629;-80
2024/03/24 05:07:49;;;;;;;3.40;2.30;;;;;;;3.69;82.45;99663.78;2534273;28;20056;-79
2024/03/24 05:09:04;;;;;;;3.17;2.08;;;;;;;3.66;82.31;99650.88;2516701;28;20053;-78
2024/03/24 05:10:19;;;;;;;2.85;2.38;;;;;;;3.63;81.94;99656.91;2525618;28;20032;-78
2024/03/24 05:11:32;;;;;;;2.17;1.90;;;;;;;3.60;82.05;99654.31;2530433;28;20030;-78
2024/03/24 05:12:45;;;;;;;3.15;2.10;;;;;;;3.57;81.89;99650.88;2523642;28;20444;-77
2024/03/24 05:13:58;;;;;;;5.97;2.58;;;;;;;3.55;82.00;99655.16;2527150;28;20545;-79
2024/03/24 05:15:12;;;;;;;3.55;2.13;;;;;;;3.52;82.07;99656.00;2532956;28;20029;-79
2024/03/24 05:16:31;;;;;;;5.93;2.03;;;;;;;3.49;82.03;99666.31;2547593;28;20013;-79
2024/03/24 05:17:44;;;;;;;2.13;2.03;;;;;;;3.47;81.96;99657.69;2526730;28;20033;-78
2024/03/24 05:19:00;;;;;;;2.70;1.90;;;;;;;3.47;82.06;99655.13;2520908;28;20143;-78
2024/03/24 05:20:13;;;;;;;3.45;3.00;;;;;;;3.46;82.15;99661.16;2533960;28;20044;-78
2024/03/24 05:21:26;;;;;;;3.85;1.88;;;;;;;3.43;82.08;99662.00;2533720;28;20025;-79
2024/03/24 05:22:40;;;;;;;4.50;2.72;;;;;;;3.43;82.13;99674.00;2533460;28;20457;-78
2024/03/24 05:23:54;;;;;;;1.92;1.52;;;;;;;3.40;82.10;99677.44;2535411;28;20035;-78
2024/03/24 05:25:07;;;;;;;2.88;2.58;;;;;;;3.38;82.14;99679.16;2527069;28;20030;-78
2024/03/24 05:26:20;;;;;;;5.55;2.38;;;;;;;3.38;82.41;99689.47;2526905;28;20024;-79
2024/03/24 05:27:34;;;;;;;5.60;2.40;;;;;;;3.36;82.38;99682.59;2533148;28;20026;-78
2024/03/24 05:28:47;;;;;;;1.80;1.70;;;;;;;3.35;82.38;99678.28;2532695;28;20500;-79
2024/03/24 05:30:00;;;;;;;7.28;2.28;;;;;;;3.33;82.41;99675.69;2521115;28;20471;-78
2024/03/24 05:31:14;;;;;;;2.28;1.77;;;;;;;3.32;82.41;99671.38;2526696;28;20025;-79
2024/03/24 05:32:27;;;;;;;2.00;1.90;;;;;;;3.31;82.52;99687.72;2525522;28;20048;-78
2024/03/24 05:33:41;;;;;;;5.20;2.50;;;;;;;3.33;82.79;99680.88;2518918;28;20200;-79
2024/03/24 05:34:54;;;;;;;4.55;3.13;;;;;;;3.35;82.79;99684.28;2518169;28;20034;-79
2024/03/24 05:36:08;;;;;;;3.53;2.10;;;;;;;3.39;82.68;99680.88;2527524;28;20034;-81
2024/03/24 05:37:22;;;;;;;2.22;1.98;;;;;;;3.44;82.92;99683.50;2535317;28;20021;-78
2024/03/24 05:38:35;;;;;;;4.47;2.63;;;;;;;3.47;82.89;99684.34;2529027;28;20026;-81
2024/03/24 05:39:48;;;;;;;3.88;2.55;;;;;;;3.51;82.96;99685.22;2534411;28;20034;-80
2024/03/24 05:41:06;;;;;;;5.88;2.78;;;;;;;3.55;83.00;99688.69;2534829;28;20091;-78
2024/03/24 05:42:20;;;;;;;2.60;2.20;;;;;;;3.58;82.83;99693.84;2525511;28;20030;-80
2024/03/24 05:43:33;;;;;;;8.57;2.67;;;;;;;3.62;82.77;99693.88;2528357;28;20033;-80
2024/03/24 05:44:46;;;;;;;6.07;2.85;;;;;;;3.67;82.64;99701.66;2528414;28;20013;-81
2024/03/24 05:46:00;;;;;;;4.38;2.95;;;;;;;3.70;82.64;99696.50;2528417;28;20033;-78
2024/03/24 05:47:13;;;;;;;3.22;2.70;;;;;;;3.75;82.65;99693.94;2528396;28;20060;-80
2024/03/24 05:48:26;;;;;;;8.15;2.95;;;;;;;3.78;82.53;99699.09;2535277;28;20056;-78
2024/03/24 05:49:40;;;;;;;2.55;2.35;;;;;;;3.80;82.58;99695.69;2525331;28;20116;-80
2024/03/24 05:51:03;;;;;;;4.28;2.90;;;;;;;3.83;82.53;99698.25;2528120;28;20541;-79